Time;durP1;ratioP1;P1;durP2;ratioP2;P2;SDS_P1;SDS_P2;PMS_P1;PMS_P2;Temp;Humidity;BMP_temperature;BMP_pressure;BME280_temperature;BME280_humidity;BME280_pressure;Samples;Min_cycle;Max_cycle;Signal;HPM_P1;HPM_P2
2021/03/28 00:02:27;;;;;;;;;;;19.40;51.00;;;;;;5054893;28;1525;-68
2021/03/28 00:04:59;;;;;;;;;;;19.40;51.10;;;;;;5070143;28;1150;-68
2021/03/28 00:07:27;;;;;;;;;;;19.40;51.10;;;;;;5069553;28;1370;-68
2021/03/28 00:09:53;;;;;;;;;;;19.40;51.10;;;;;;5069760;28;1217;-68
2021/03/28 00:12:18;;;;;;;;;;;19.40;51.10;;;;;;5070116;28;1334;-68
2021/03/28 00:15:05;;;;;;;;;;;19.40;51.10;;;;;;5054501;28;1145;-68
2021/03/28 00:17:36;;;;;;;;;;;19.40;51.20;;;;;;5054045;28;1906;-68
2021/03/28 00:20:22;;;;;;;;;;;19.40;51.20;;;;;;5070077;28;1107;-68
2021/03/28 00:22:56;;;;;;;;;;;19.30;51.20;;;;;;5055464;28;1206;-68
2021/03/28 00:25:31;;;;;;;;;;;19.30;51.20;;;;;;5052907;28;1120;-68
2021/03/28 00:27:56;;;;;;;;;;;19.30;51.20;;;;;;5036154;28;1275;-68
2021/03/28 00:30:25;;;;;;;;;;;19.40;51.30;;;;;;5049630;28;1139;-68
2021/03/28 00:33:01;;;;;;;;;;;19.30;51.30;;;;;;5035583;28;1307;-67
2021/03/28 00:35:34;;;;;;;;;;;19.30;51.30;;;;;;5069458;28;1044;-68
2021/03/28 00:38:08;;;;;;;;;;;19.30;51.40;;;;;;5069052;28;1989;-68
2021/03/28 00:40:33;;;;;;;;;;;19.30;51.30;;;;;;5053959;28;1114;-69
2021/03/28 00:43:06;;;;;;;;;;;19.30;51.40;;;;;;5069337;28;1123;-68
2021/03/28 00:45:41;;;;;;;;;;;19.30;51.40;;;;;;5069278;28;1278;-68
2021/03/28 00:48:06;;;;;;;;;;;19.30;51.40;;;;;;5053729;28;1294;-68
2021/03/28 00:50:34;;;;;;;;;;;19.30;51.40;;;;;;5039064;28;1159;-69
2021/03/28 00:53:00;;;;;;;;;;;19.30;51.50;;;;;;5069253;28;1154;-68
2021/03/28 00:55:26;;;;;;;;;;;19.30;51.50;;;;;;5068824;28;1251;-68
2021/03/28 00:57:58;;;;;;;;;;;19.30;51.50;;;;;;5053294;28;1898;-68
2021/03/28 01:00:40;;;;;;;;;;;19.30;51.50;;;;;;5034565;28;1529;-67
2021/03/28 01:03:09;;;;;;;;;;;19.30;51.50;;;;;;5032574;28;1341;-68
2021/03/28 01:05:37;;;;;;;;;;;19.30;51.50;;;;;;5032027;28;1259;-68
2021/03/28 01:08:08;;;;;;;;;;;19.30;51.60;;;;;;5047677;28;1367;-68
2021/03/28 01:10:48;;;;;;;;;;;19.30;51.60;;;;;;5048938;28;1139;-67
2021/03/28 01:13:26;;;;;;;;;;;19.30;51.60;;;;;;5049091;28;1238;-67
2021/03/28 01:16:10;;;;;;;;;;;19.30;51.60;;;;;;5048904;28;1284;-67
2021/03/28 01:18:39;;;;;;;;;;;19.30;51.60;;;;;;5032778;28;1914;-68
2021/03/28 01:21:09;;;;;;;;;;;19.30;51.70;;;;;;5048647;28;1331;-68
2021/03/28 01:23:39;;;;;;;;;;;19.30;51.70;;;;;;5029528;28;1222;-67
2021/03/28 01:26:16;;;;;;;;;;;19.30;51.70;;;;;;5066107;28;1267;-67
2021/03/28 01:28:50;;;;;;;;;;;19.30;51.70;;;;;;5031608;28;1193;-68
2021/03/28 01:31:18;;;;;;;;;;;19.30;51.70;;;;;;5033186;28;1128;-68
2021/03/28 01:34:12;;;;;;;;;;;19.20;51.70;;;;;;5040896;28;2514;-68
2021/03/28 01:36:39;;;;;;;;;;;19.20;51.70;;;;;;5051798;28;1374;-68
2021/03/28 01:39:05;;;;;;;;;;;19.20;51.80;;;;;;5068019;28;1965;-68
2021/03/28 01:41:32;;;;;;;;;;;19.20;51.80;;;;;;5052778;28;1118;-67
2021/03/28 01:44:04;;;;;;;;;;;19.20;51.80;;;;;;5068329;28;1320;-67
2021/03/28 01:46:31;;;;;;;;;;;19.20;51.80;;;;;;5068353;28;1224;-68
2021/03/28 01:49:16;;;;;;;;;;;19.20;51.80;;;;;;5051128;28;1294;-67
2021/03/28 01:51:54;;;;;;;;;;;19.20;51.80;;;;;;5068198;28;1115;-67
2021/03/28 01:54:24;;;;;;;;;;;19.20;51.90;;;;;;5068326;28;1273;-68
2021/03/28 01:57:02;;;;;;;;;;;19.20;51.90;;;;;;5068431;28;1317;-67
2021/03/28 01:59:30;;;;;;;;;;;19.20;51.90;;;;;;5068195;28;1914;-67
2021/03/28 02:02:05;;;;;;;;;;;19.20;51.90;;;;;;5054886;28;1123;-68
2021/03/28 02:04:32;;;;;;;;;;;19.20;51.90;;;;;;5052615;28;1075;-68
2021/03/28 02:07:11;;;;;;;;;;;19.20;51.90;;;;;;5051357;28;1426;-68
2021/03/28 02:09:41;;;;;;;;;;;19.20;52.00;;;;;;5067977;28;1313;-67
2021/03/28 02:12:06;;;;;;;;;;;19.20;52.00;;;;;;5071581;28;1154;-67
2021/03/28 02:14:41;;;;;;;;;;;19.20;52.00;;;;;;5056608;28;1056;-68
2021/03/28 02:17:24;;;;;;;;;;;19.20;52.40;;;;;;5056438;28;1425;-69
2021/03/28 02:19:56;;;;;;;;;;;19.20;52.00;;;;;;5072150;28;1234;-70
2021/03/28 02:22:21;;;;;;;;;;;19.20;52.00;;;;;;5047670;28;1142;-67
2021/03/28 02:24:56;;;;;;;;;;;19.20;52.00;;;;;;5036507;28;1108;-67
2021/03/28 02:27:29;;;;;;;;;;;19.20;52.00;;;;;;5051606;28;1373;-68
2021/03/28 02:30:05;;;;;;;;;;;19.20;52.10;;;;;;5035395;28;1405;-68
2021/03/28 02:32:34;;;;;;;;;;;19.20;52.10;;;;;;5051193;28;1274;-67
2021/03/28 02:35:11;;;;;;;;;;;19.20;52.10;;;;;;5071967;28;1314;-68
2021/03/28 02:37:39;;;;;;;;;;;19.20;52.10;;;;;;5071126;28;1898;-68
2021/03/28 02:40:11;;;;;;;;;;;19.20;52.00;;;;;;5056519;28;1094;-70
2021/03/28 02:42:55;;;;;;;;;;;19.20;51.90;;;;;;5056367;28;1221;-69
2021/03/28 02:45:21;;;;;;;;;;;19.20;51.90;;;;;;5056172;28;1051;-69
2021/03/28 02:47:59;;;;;;;;;;;19.20;51.80;;;;;;5071194;28;1223;-69
2021/03/28 02:50:45;;;;;;;;;;;19.30;51.80;;;;;;5056024;28;1313;-69
2021/03/28 02:53:14;;;;;;;;;;;19.30;51.70;;;;;;5071634;28;1268;-70
2021/03/28 02:55:47;;;;;;;;;;;19.30;51.60;;;;;;5055959;28;1082;-69
2021/03/28 02:58:31;;;;;;;;;;;19.40;51.60;;;;;;5070863;28;1902;-70
2021/03/28 03:01:15;;;;;;;;;;;19.40;51.60;;;;;;5055983;28;1183;-70
2021/03/28 03:03:55;;;;;;;;;;;19.40;51.50;;;;;;5055689;28;1134;-70
2021/03/28 03:06:56;;;;;;;;;;;19.40;51.50;;;;;;5056029;28;1048;-70
2021/03/28 03:09:40;;;;;;;;;;;19.50;51.50;;;;;;5016505;28;1423;-69
2021/03/28 03:12:14;;;;;;;;;;;19.50;51.50;;;;;;5054046;28;1087;-68
2021/03/28 03:14:43;;;;;;;;;;;19.40;51.40;;;;;;5040947;28;1322;-68
2021/03/28 03:17:27;;;;;;;;;;;19.50;51.40;;;;;;5055196;28;1324;-70
2021/03/28 03:20:03;;;;;;;;;;;19.50;51.40;;;;;;5055620;28;1342;-70
2021/03/28 03:22:29;;;;;;;;;;;19.50;51.40;;;;;;5056451;28;1285;-70
2021/03/28 03:25:04;;;;;;;;;;;19.50;51.40;;;;;;5054847;28;1204;-69
2021/03/28 03:27:49;;;;;;;;;;;19.50;51.40;;;;;;5055792;28;1364;-70
2021/03/28 03:30:33;;;;;;;;;;;19.50;51.40;;;;;;5035445;28;1068;-69
2021/03/28 03:33:17;;;;;;;;;;;19.50;51.40;;;;;;5037272;28;1257;-70
2021/03/28 03:35:54;;;;;;;;;;;19.50;51.40;;;;;;5055069;28;1314;-69
2021/03/28 03:38:39;;;;;;;;;;;19.50;51.40;;;;;;5054860;28;1969;-70
2021/03/28 03:41:31;;;;;;;;;;;19.50;51.40;;;;;;5070696;28;1544;-70
2021/03/28 03:44:04;;;;;;;;;;;19.50;51.40;;;;;;5053977;28;1271;-70
2021/03/28 03:46:48;;;;;;;;;;;19.50;51.40;;;;;;5053719;28;1506;-70
2021/03/28 03:49:23;;;;;;;;;;;19.50;51.40;;;;;;5054701;28;1491;-71
2021/03/28 03:52:07;;;;;;;;;;;19.50;51.40;;;;;;5070445;28;1075;-69
2021/03/28 03:54:35;;;;;;;;;;;19.50;51.50;;;;;;5054874;28;1111;-70
2021/03/28 03:57:19;;;;;;;;;;;19.50;51.50;;;;;;5070292;28;1359;-70
2021/03/28 03:59:50;;;;;;;;;;;19.50;51.50;;;;;;5054746;28;1969;-70
2021/03/28 04:02:34;;;;;;;;;;;19.50;51.50;;;;;;5054710;28;1376;-69
2021/03/28 04:05:18;;;;;;;;;;;19.50;51.50;;;;;;5054460;28;1126;-70
2021/03/28 04:07:46;;;;;;;;;;;19.50;51.50;;;;;;5053159;28;1394;-70
2021/03/28 04:10:29;;;;;;;;;;;19.50;51.50;;;;;;5053192;28;1409;-68
2021/03/28 04:12:58;;;;;;;;;;;19.50;51.50;;;;;;5070092;28;1205;-68
2021/03/28 04:15:36;;;;;;;;;;;19.60;51.60;;;;;;5069865;28;1079;-68
2021/03/28 04:18:04;;;;;;;;;;;19.60;51.50;;;;;;5054212;28;1985;-70
2021/03/28 04:20:48;;;;;;;;;;;19.70;51.40;;;;;;5054386;28;1327;-70
2021/03/28 04:23:23;;;;;;;;;;;19.80;51.30;;;;;;5038154;28;1150;-70
2021/03/28 04:25:51;;;;;;;;;;;19.90;51.10;;;;;;5049723;28;1302;-70
2021/03/28 04:28:29;;;;;;;;;;;20.00;50.90;;;;;;5032812;28;1260;-70
2021/03/28 04:30:57;;;;;;;;;;;20.10;50.70;;;;;;5034277;28;1076;-67
2021/03/28 04:33:42;;;;;;;;;;;20.20;50.50;;;;;;5039866;28;1111;-68
2021/03/28 04:36:11;;;;;;;;;;;20.30;50.30;;;;;;5069545;28;1381;-67
2021/03/28 04:38:42;;;;;;;;;;;20.40;50.10;;;;;;5053655;28;1910;-69
2021/03/28 04:41:19;;;;;;;;;;;20.50;50.00;;;;;;5069588;28;1206;-67
2021/03/28 04:43:45;;;;;;;;;;;20.60;49.80;;;;;;5053176;28;1294;-67
2021/03/28 04:46:16;;;;;;;;;;;20.60;49.60;;;;;;5026743;28;1103;-67
2021/03/28 04:49:00;;;;;;;;;;;20.70;49.50;;;;;;5043010;28;1278;-66
2021/03/28 04:51:31;;;;;;;;;;;20.80;49.40;;;;;;5054178;28;1075;-68
2021/03/28 04:54:15;;;;;;;;;;;20.80;49.30;;;;;;5053730;28;1356;-66
2021/03/28 04:56:52;;;;;;;;;;;20.80;49.20;;;;;;5053587;28;1283;-66
2021/03/28 04:59:36;;;;;;;;;;;20.90;49.10;;;;;;5068451;28;1951;-68
2021/03/28 05:02:09;;;;;;;;;;;20.90;49.10;;;;;;5053684;28;1412;-69
2021/03/28 05:04:45;;;;;;;;;;;21.00;49.00;;;;;;5052414;28;1282;-69
2021/03/28 05:07:29;;;;;;;;;;;21.00;48.90;;;;;;5053370;28;1329;-68
2021/03/28 05:10:15;;;;;;;;;;;21.00;48.90;;;;;;5053325;28;1107;-66
2021/03/28 05:12:45;;;;;;;;;;;21.10;48.90;;;;;;5052181;28;1371;-69
2021/03/28 05:15:18;;;;;;;;;;;21.10;48.80;;;;;;5068612;28;1206;-69
2021/03/28 05:18:02;;;;;;;;;;;21.10;48.70;;;;;;5053014;28;1975;-69
2021/03/28 05:20:35;;;;;;;;;;;21.20;48.80;;;;;;5044908;28;1114;-68
2021/03/28 05:23:13;;;;;;;;;;;21.20;48.70;;;;;;5050403;28;1323;-69
2021/03/28 05:25:38;;;;;;;;;;;21.20;48.70;;;;;;5032023;28;1333;-70
2021/03/28 05:28:22;;;;;;;;;;;21.30;48.60;;;;;;5032805;28;1279;-70
2021/03/28 05:30:56;;;;;;;;;;;21.30;48.70;;;;;;5033182;28;1064;-70
2021/03/28 05:33:54;;;;;;;;;;;21.30;48.60;;;;;;5038926;28;1107;-70
2021/03/28 05:36:24;;;;;;;;;;;21.30;48.60;;;;;;5041040;28;1323;-70
2021/03/28 05:39:08;;;;;;;;;;;21.30;48.60;;;;;;5067753;28;1897;-70
2021/03/28 05:41:36;;;;;;;;;;;21.30;48.60;;;;;;5053157;28;1079;-70
2021/03/28 05:44:14;;;;;;;;;;;21.30;48.60;;;;;;5052881;28;1055;-70
2021/03/28 05:47:09;;;;;;;;;;;21.30;48.70;;;;;;5052279;28;1263;-70
2021/03/28 05:49:41;;;;;;;;;;;21.30;48.70;;;;;;5033085;28;1312;-70
2021/03/28 05:52:12;;;;;;;;;;;21.20;48.70;;;;;;5052841;28;1071;-70
2021/03/28 05:54:57;;;;;;;;;;;21.20;48.80;;;;;;5052810;28;1130;-70
2021/03/28 05:57:22;;;;;;;;;;;21.20;48.80;;;;;;5052401;28;1246;-71
2021/03/28 05:59:53;;;;;;;;;;;21.20;48.90;;;;;;5052541;28;1894;-70
2021/03/28 06:02:42;;;;;;;;;;;21.20;48.90;;;;;;5052968;28;1091;-70
2021/03/28 06:05:07;;;;;;;;;;;21.20;49.00;;;;;;5068191;28;1139;-69
2021/03/28 06:07:51;;;;;;;;;;;21.20;49.10;;;;;;5052307;28;1292;-70
2021/03/28 06:10:44;;;;;;;;;;;21.10;49.10;;;;;;5052508;28;1371;-70
2021/03/28 06:13:28;;;;;;;;;;;21.10;49.10;;;;;;5068201;28;1335;-70
2021/03/28 06:15:58;;;;;;;;;;;21.10;49.20;;;;;;5051249;28;1092;-70
2021/03/28 06:18:31;;;;;;;;;;;21.10;49.30;;;;;;5052236;28;1906;-70
2021/03/28 06:20:56;;;;;;;;;;;21.10;49.30;;;;;;5068084;28;1098;-69
2021/03/28 06:23:32;;;;;;;;;;;21.00;49.40;;;;;;5035203;28;1170;-69
2021/03/28 06:26:07;;;;;;;;;;;21.00;49.40;;;;;;5047914;28;1058;-70
2021/03/28 06:28:51;;;;;;;;;;;21.00;49.50;;;;;;5047682;28;1306;-69
2021/03/28 06:31:25;;;;;;;;;;;21.00;49.50;;;;;;5032722;28;1395;-70
2021/03/28 06:34:10;;;;;;;;;;;20.90;49.60;;;;;;5041095;28;1238;-70
2021/03/28 06:36:59;;;;;;;;;;;20.90;49.70;;;;;;5052595;28;1138;-70
2021/03/28 06:39:46;;;;;;;;;;;20.90;49.70;;;;;;5067390;28;1898;-70
2021/03/28 06:42:30;;;;;;;;;;;20.80;49.70;;;;;;5052409;28;1095;-69
2021/03/28 06:45:01;;;;;;;;;;;20.80;49.80;;;;;;5052312;28;1138;-68
2021/03/28 06:47:44;;;;;;;;;;;20.80;49.90;;;;;;5051983;28;1285;-70
2021/03/28 06:50:19;;;;;;;;;;;20.80;49.90;;;;;;5052257;28;1150;-70
2021/03/28 06:52:50;;;;;;;;;;;20.80;50.00;;;;;;5052432;28;1318;-69
2021/03/28 06:55:34;;;;;;;;;;;20.80;50.10;;;;;;5052216;28;1171;-69
2021/03/28 06:58:08;;;;;;;;;;;20.70;50.10;;;;;;5054915;28;1898;-69
2021/03/28 07:00:40;;;;;;;;;;;20.70;50.10;;;;;;5055946;28;1210;-69
2021/03/28 07:03:17;;;;;;;;;;;20.70;50.20;;;;;;5071314;28;1052;-69
2021/03/28 07:05:47;;;;;;;;;;;20.70;49.20;;;;;;5070908;28;1119;-68
2021/03/28 07:08:32;;;;;;;;;;;20.60;46.90;;;;;;5043650;22;2203;-67
2021/03/28 07:10:57;;;;;;;;;;;20.50;46.30;;;;;;5007400;28;1392;-68
2021/03/28 07:13:41;;;;;;;;;;;20.50;47.00;;;;;;5014677;28;1307;-67
2021/03/28 07:16:25;;;;;;;;;;;20.40;47.90;;;;;;5001298;28;1807;-64
2021/03/28 07:19:03;;;;;;;;;;;20.40;49.10;;;;;;5002867;28;1985;-64
2021/03/28 07:21:31;;;;;;;;;;;20.50;49.60;;;;;;5006401;28;1370;-65
2021/03/28 07:24:03;;;;;;;;;;;20.50;49.90;;;;;;5005387;28;1319;-65
2021/03/28 07:26:39;;;;;;;;;;;20.40;50.20;;;;;;5006109;28;1301;-65
2021/03/28 07:29:16;;;;;;;;;;;20.50;50.20;;;;;;5007342;28;1376;-66
2021/03/28 07:32:00;;;;;;;;;;;20.50;50.20;;;;;;5008560;28;1205;-64
2021/03/28 07:34:44;;;;;;;;;;;20.50;50.60;;;;;;5013193;28;1414;-66
2021/03/28 07:37:13;;;;;;;;;;;20.50;50.90;;;;;;5014166;28;1360;-63
2021/03/28 07:39:56;;;;;;;;;;;20.50;50.90;;;;;;5013105;28;1961;-65
2021/03/28 07:42:27;;;;;;;;;;;20.50;51.00;;;;;;5020329;28;1663;-67
2021/03/28 07:45:11;;;;;;;;;;;20.50;51.20;;;;;;5029755;28;1584;-66
2021/03/28 07:47:53;;;;;;;;;;;20.40;51.30;;;;;;5013352;28;1619;-65
2021/03/28 07:50:31;;;;;;;;;;;20.40;51.30;;;;;;5000721;28;1405;-65
2021/03/28 07:52:56;;;;;;;;;;;20.40;51.40;;;;;;5012987;28;1337;-64
2021/03/28 07:55:21;;;;;;;;;;;20.40;51.40;;;;;;5013689;28;1513;-69
2021/03/28 07:58:06;;;;;;;;;;;20.40;51.50;;;;;;5013591;28;1898;-69
2021/03/28 08:00:51;;;;;;;;;;;20.50;51.60;;;;;;5014730;28;1736;-69
2021/03/28 08:03:35;;;;;;;;;;;20.40;51.70;;;;;;4984034;28;1415;-68
2021/03/28 08:06:01;;;;;;;;;;;20.40;51.70;;;;;;5014465;28;1042;-68
2021/03/28 08:08:45;;;;;;;;;;;20.40;52.00;;;;;;5012911;28;1387;-69
2021/03/28 08:11:20;;;;;;;;;;;20.40;52.20;;;;;;5014651;28;1639;-69
2021/03/28 08:14:04;;;;;;;;;;;20.40;52.30;;;;;;5013687;28;1580;-68
2021/03/28 08:16:39;;;;;;;;;;;20.40;52.30;;;;;;5013910;28;1693;-68
2021/03/28 08:19:26;;;;;;;;;;;20.40;52.30;;;;;;5012264;28;1977;-68
2021/03/28 08:22:04;;;;;;;;;;;20.40;52.30;;;;;;5013193;28;1375;-69
2021/03/28 08:24:45;;;;;;;;;;;20.40;52.40;;;;;;4996068;28;1588;-68
2021/03/28 08:27:16;;;;;;;;;;;20.40;52.40;;;;;;5013222;28;1462;-68
2021/03/28 08:29:44;;;;;;;;;;;20.40;52.50;;;;;;5013997;28;1572;-69
2021/03/28 08:32:28;;;;;;;;;;;20.40;52.50;;;;;;5013011;28;1570;-66
2021/03/28 08:35:03;;;;;;;;;;;20.30;52.60;;;;;;5003301;28;1630;-67
2021/03/28 08:37:28;;;;;;;;;;;20.40;52.70;;;;;;5013478;28;1670;-68
2021/03/28 08:40:09;;;;;;;;;;;20.30;52.70;;;;;;5014389;28;1906;-69
2021/03/28 08:42:34;;;;;;;;;;;20.40;52.90;;;;;;5014525;28;1544;-68
2021/03/28 08:45:19;;;;;;;;;;;20.30;52.90;;;;;;5014134;28;1638;-69
2021/03/28 08:47:44;;;;;;;;;;;20.30;52.90;;;;;;5028920;28;1367;-69
2021/03/28 08:50:15;;;;;;;;;;;20.30;53.00;;;;;;5014099;28;1667;-69
2021/03/28 08:52:59;;;;;;;;;;;20.30;53.10;;;;;;5013891;28;1660;-69
2021/03/28 08:55:43;;;;;;;;;;;20.30;53.10;;;;;;5013787;28;1517;-68
2021/03/28 08:58:14;;;;;;;;;;;20.30;53.10;;;;;;5012634;28;1948;-68
2021/03/28 09:00:41;;;;;;;;;;;20.30;53.10;;;;;;5013486;28;1567;-68
2021/03/28 09:03:15;;;;;;;;;;;20.30;53.20;;;;;;5012324;28;1664;-67
2021/03/28 09:06:01;;;;;;;;;;;20.30;53.20;;;;;;5028972;28;1658;-66
2021/03/28 09:08:34;;;;;;;;;;;20.30;53.20;;;;;;5027822;28;1625;-66
2021/03/28 09:11:19;;;;;;;;;;;20.30;53.30;;;;;;5028773;28;986;-66
2021/03/28 09:13:47;;;;;;;;;;;20.30;53.40;;;;;;5013409;28;1354;-67
2021/03/28 09:16:48;;;;;;;;;;;20.30;53.30;;;;;;5013606;28;1580;-66
2021/03/28 09:19:15;;;;;;;;;;;20.30;53.30;;;;;;4970789;28;1902;-67
2021/03/28 09:21:52;;;;;;;;;;;20.30;53.50;;;;;;5003597;28;1738;-66
2021/03/28 09:24:20;;;;;;;;;;;20.30;53.40;;;;;;5012789;28;1544;-66
2021/03/28 09:26:52;;;;;;;;;;;20.30;54.00;;;;;;5013331;28;1344;-66
2021/03/28 09:29:36;;;;;;;;;;;20.30;53.60;;;;;;5011116;28;1374;-66
2021/03/28 09:32:06;;;;;;;;;;;20.30;53.70;;;;;;5012969;28;1355;-66
2021/03/28 09:34:53;;;;;;;;;;;20.30;53.70;;;;;;5013067;28;1420;-66
2021/03/28 09:37:31;;;;;;;;;;;20.30;53.60;;;;;;5012165;28;1595;-66
2021/03/28 09:40:03;;;;;;;;;;;20.30;53.60;;;;;;5011885;28;1894;-66
2021/03/28 09:42:40;;;;;;;;;;;20.30;53.70;;;;;;5013085;28;1629;-66
2021/03/28 09:45:24;;;;;;;;;;;20.30;53.80;;;;;;5013097;28;1377;-66
2021/03/28 09:47:52;;;;;;;;;;;20.30;53.80;;;;;;5011919;28;1652;-66
2021/03/28 09:50:20;;;;;;;;;;;20.30;53.90;;;;;;5012593;28;1634;-66
2021/03/28 09:53:05;;;;;;;;;;;20.30;54.00;;;;;;5012830;28;1691;-66
2021/03/28 09:55:38;;;;;;;;;;;20.30;54.00;;;;;;5011407;28;1711;-66
2021/03/28 09:58:39;;;;;;;;;;;20.30;53.90;;;;;;5010239;28;1898;-66
2021/03/28 10:01:16;;;;;;;;;;;20.30;53.90;;;;;;5011907;28;1629;-66
2021/03/28 10:03:50;;;;;;;;;;;20.30;54.00;;;;;;5012004;28;1408;-66
2021/03/28 10:06:16;;;;;;;;;;;20.20;53.90;;;;;;5011526;28;1687;-66
2021/03/28 10:08:42;;;;;;;;;;;20.20;54.00;;;;;;5010377;28;1580;-67
2021/03/28 10:11:20;;;;;;;;;;;20.20;54.00;;;;;;5011432;28;1747;-67
2021/03/28 10:13:56;;;;;;;;;;;20.20;54.10;;;;;;5011654;28;1601;-66
2021/03/28 10:16:30;;;;;;;;;;;20.20;54.10;;;;;;5011503;28;1421;-67
2021/03/28 10:19:34;;;;;;;;;;;20.20;54.20;;;;;;5010293;28;1975;-67
2021/03/28 10:22:06;;;;;;;;;;;20.20;54.20;;;;;;4952052;29;1408;-67
2021/03/28 10:24:31;;;;;;;;;;;20.20;54.20;;;;;;4952219;29;1546;-66
2021/03/28 10:27:03;;;;;;;;;;;20.20;54.30;;;;;;4981651;28;1623;-66
2021/03/28 10:29:57;;;;;;;;;;;20.20;54.40;;;;;;5012233;28;1621;-65
2021/03/28 10:32:28;;;;;;;;;;;20.20;54.50;;;;;;4995497;28;1408;-65
2021/03/28 10:35:13;;;;;;;;;;;20.20;54.50;;;;;;5015173;28;1367;-65
2021/03/28 10:37:41;;;;;;;;;;;20.30;54.60;;;;;;5015366;28;1906;-65
2021/03/28 10:40:25;;;;;;;;;;;20.30;54.60;;;;;;5015144;28;1654;-66
2021/03/28 10:43:21;;;;;;;;;;;20.30;54.70;;;;;;5016369;28;1600;-67
2021/03/28 10:45:58;;;;;;;;;;;20.30;54.60;;;;;;4962951;28;1611;-65
2021/03/28 10:49:02;;;;;;;;;;;20.20;54.60;;;;;;5015603;28;1395;-64
2021/03/28 10:51:33;;;;;;;;;;;20.30;54.70;;;;;;4954785;29;1665;-66
2021/03/28 10:54:08;;;;;;;;;;;20.20;54.60;;;;;;4939395;29;1701;-65
2021/03/28 10:56:39;;;;;;;;;;;20.30;54.70;;;;;;4989360;28;1661;-65
2021/03/28 10:59:04;;;;;;;;;;;20.20;54.70;;;;;;5015289;28;1898;-66
2021/03/28 11:01:44;;;;;;;;;;;20.30;54.80;;;;;;5015506;28;1651;-65
2021/03/28 11:04:33;;;;;;;;;;;20.20;54.80;;;;;;5015788;28;1300;-65
2021/03/28 11:07:01;;;;;;;;;;;20.30;55.00;;;;;;5014211;28;1400;-65
2021/03/28 11:09:29;;;;;;;;;;;20.20;55.00;;;;;;5015301;28;1655;-65
2021/03/28 11:11:55;;;;;;;;;;;20.30;55.10;;;;;;5015600;28;1530;-65
2021/03/28 11:14:38;;;;;;;;;;;20.20;55.00;;;;;;5015563;28;1056;-66
2021/03/28 11:17:16;;;;;;;;;;;20.30;54.80;;;;;;5013809;28;1688;-66
2021/03/28 11:19:56;;;;;;;;;;;20.20;54.70;;;;;;5014676;28;1972;-66
2021/03/28 11:22:38;;;;;;;;;;;20.20;54.80;;;;;;5015750;28;1822;-65
2021/03/28 11:25:11;;;;;;;;;;;20.20;54.80;;;;;;5001198;28;1605;-64
2021/03/28 11:27:37;;;;;;;;;;;20.20;54.80;;;;;;5013043;28;1594;-64
2021/03/28 11:30:03;;;;;;;;;;;20.20;54.90;;;;;;5015262;28;1664;-64
2021/03/28 11:32:43;;;;;;;;;;;20.20;54.90;;;;;;5015375;28;1497;-64
2021/03/28 11:35:09;;;;;;;;;;;20.20;55.00;;;;;;5014983;28;1367;-67
2021/03/28 11:37:36;;;;;;;;;;;20.20;54.90;;;;;;5013981;28;1614;-64
2021/03/28 11:40:09;;;;;;;;;;;20.20;55.10;;;;;;5013816;28;1907;-64
2021/03/28 11:42:35;;;;;;;;;;;20.20;55.10;;;;;;5013600;28;1711;-67
2021/03/28 11:45:00;;;;;;;;;;;20.20;55.10;;;;;;5014002;28;1668;-64
2021/03/28 11:47:27;;;;;;;;;;;20.20;55.20;;;;;;5013905;28;1673;-65
2021/03/28 11:49:56;;;;;;;;;;;20.20;55.40;;;;;;5013683;28;1679;-66
2021/03/28 11:52:22;;;;;;;;;;;20.20;55.70;;;;;;5014103;28;1415;-66
2021/03/28 11:55:04;;;;;;;;;;;20.20;56.10;;;;;;5013489;28;1352;-65
2021/03/28 11:57:31;;;;;;;;;;;20.20;56.20;;;;;;5013454;28;1665;-64
2021/03/28 11:59:58;;;;;;;;;;;20.30;56.60;;;;;;5014351;28;1956;-65
2021/03/28 12:02:25;;;;;;;;;;;20.30;55.90;;;;;;5013616;28;1689;-65
2021/03/28 12:04:57;;;;;;;;;;;20.30;56.60;;;;;;5013472;28;1581;-64
2021/03/28 12:07:22;;;;;;;;;;;20.40;55.30;;;;;;5013361;28;1674;-64
2021/03/28 12:09:54;;;;;;;;;;;20.40;52.20;;;;;;5014735;28;1676;-64
2021/03/28 12:12:42;;;;;;;;;;;20.40;50.70;;;;;;4993717;28;1908;-64
2021/03/28 12:15:26;;;;;;;;;;;20.40;49.40;;;;;;5005890;28;1578;-64
2021/03/28 12:18:10;;;;;;;;;;;20.40;48.70;;;;;;5018894;28;1973;-64
2021/03/28 12:20:36;;;;;;;;;;;20.40;47.80;;;;;;5022363;28;1545;-64
2021/03/28 12:23:01;;;;;;;;;;;20.40;47.10;;;;;;5024636;28;1159;-64
2021/03/28 12:25:28;;;;;;;;;;;20.40;46.60;;;;;;5014372;28;966;-64
2021/03/28 12:27:56;;;;;;;;;;;20.40;46.10;;;;;;5028833;28;1255;-64
2021/03/28 12:30:28;;;;;;;;;;;20.40;45.90;;;;;;5009842;28;1377;-64
2021/03/28 12:32:56;;;;;;;;;;;20.40;45.70;;;;;;5005914;28;1379;-65
2021/03/28 12:35:23;;;;;;;;;;;20.40;45.70;;;;;;5003147;28;1217;-65
2021/03/28 12:37:48;;;;;;;;;;;20.50;45.60;;;;;;5005942;28;1907;-64
2021/03/28 12:40:28;;;;;;;;;;;20.40;45.20;;;;;;5007536;28;1296;-66
2021/03/28 12:42:53;;;;;;;;;;;20.40;45.10;;;;;;5012988;28;1315;-63
2021/03/28 12:45:18;;;;;;;;;;;20.40;45.00;;;;;;5012025;28;1073;-64
2021/03/28 12:47:47;;;;;;;;;;;20.40;45.20;;;;;;5012944;28;1405;-64
2021/03/28 12:50:15;;;;;;;;;;;20.40;44.80;;;;;;5013610;28;1391;-64
2021/03/28 12:52:53;;;;;;;;;;;20.40;44.80;;;;;;5013620;28;1062;-65
2021/03/28 12:55:29;;;;;;;;;;;20.40;44.90;;;;;;5012264;28;1400;-64
2021/03/28 12:57:55;;;;;;;;;;;20.40;44.80;;;;;;5011281;28;1965;-65
2021/03/28 13:00:39;;;;;;;;;;;20.40;44.80;;;;;;5011949;28;1395;-64
2021/03/28 13:03:24;;;;;;;;;;;20.40;44.90;;;;;;5013571;28;1039;-64
2021/03/28 13:05:59;;;;;;;;;;;20.40;44.80;;;;;;5013296;28;1120;-64
2021/03/28 13:08:24;;;;;;;;;;;20.40;45.10;;;;;;5052114;22;3732;-71
2021/03/28 13:10:49;;;;;;;;;;;20.40;45.00;;;;;;5063009;28;1322;-72
2021/03/28 13:13:15;;;;;;;;;;;20.40;45.00;;;;;;5068691;28;1720;-72
2021/03/28 13:15:44;;;;;;;;;;;20.40;44.90;;;;;;5073201;28;1528;-71
2021/03/28 13:18:30;;;;;;;;;;;20.50;44.70;;;;;;5070936;28;1922;-71
2021/03/28 13:20:55;;;;;;;;;;;20.40;44.80;;;;;;5072726;28;1689;-71
2021/03/28 13:23:37;;;;;;;;;;;20.50;44.70;;;;;;5062136;28;1509;-71
2021/03/28 13:26:06;;;;;;;;;;;20.40;44.40;;;;;;5071972;28;1174;-71
2021/03/28 13:28:31;;;;;;;;;;;20.40;44.60;;;;;;5070779;28;1631;-71
2021/03/28 13:31:16;;;;;;;;;;;20.40;44.60;;;;;;5071993;28;827;-72
2021/03/28 13:33:44;;;;;;;;;;;20.40;44.50;;;;;;5069832;28;1509;-72
2021/03/28 13:36:14;;;;;;;;;;;20.50;44.40;;;;;;5049997;28;1871;-71
2021/03/28 13:38:39;;;;;;;;;;;20.50;44.30;;;;;;5070641;28;1910;-71
2021/03/28 13:41:06;;;;;;;;;;;20.40;44.10;;;;;;5070920;28;1585;-71
2021/03/28 13:43:32;;;;;;;;;;;20.40;43.70;;;;;;5067040;28;1440;-72
2021/03/28 13:46:06;;;;;;;;;;;20.40;43.70;;;;;;5057894;28;1354;-71
2021/03/28 13:48:32;;;;;;;;;;;20.40;43.80;;;;;;5071321;28;1298;-70
2021/03/28 13:51:14;;;;;;;;;;;20.40;43.80;;;;;;5070860;28;1050;-71
2021/03/28 13:53:40;;;;;;;;;;;20.50;44.30;;;;;;5068118;28;1976;-72
2021/03/28 13:56:19;;;;;;;;;;;20.40;45.00;;;;;;5067080;28;1684;-69
2021/03/28 13:58:44;;;;;;;;;;;20.50;45.60;;;;;;5066047;28;1973;-69
2021/03/28 14:01:18;;;;;;;;;;;20.50;46.00;;;;;;5050782;28;1257;-69
2021/03/28 14:03:43;;;;;;;;;;;20.50;46.20;;;;;;5070856;28;1289;-70
2021/03/28 14:06:28;;;;;;;;;;;20.50;46.40;;;;;;5072008;28;1309;-69
2021/03/28 14:08:55;;;;;;;;;;;20.50;46.50;;;;;;5077628;28;1255;-69
2021/03/28 14:11:22;;;;;;;;;;;20.60;46.70;;;;;;5077441;28;1269;-69
2021/03/28 14:13:47;;;;;;;;;;;20.60;46.80;;;;;;5043140;28;1334;-70
2021/03/28 14:16:13;;;;;;;;;;;20.60;46.90;;;;;;5076294;28;1354;-70
2021/03/28 14:18:46;;;;;;;;;;;20.60;47.00;;;;;;5067881;28;1887;-69
2021/03/28 14:21:11;;;;;;;;;;;20.60;47.10;;;;;;5071666;28;1286;-69
2021/03/28 14:23:44;;;;;;;;;;;20.60;47.10;;;;;;5078847;28;1095;-69
2021/03/28 14:26:09;;;;;;;;;;;20.60;47.10;;;;;;5078834;28;1305;-69
2021/03/28 14:28:36;;;;;;;;;;;20.60;47.20;;;;;;5078056;28;1532;-69
2021/03/28 14:31:10;;;;;;;;;;;20.60;47.30;;;;;;5076447;28;1281;-68
2021/03/28 14:33:47;;;;;;;;;;;20.60;47.30;;;;;;5076430;28;1189;-69
2021/03/28 14:36:21;;;;;;;;;;;20.60;47.30;;;;;;5078412;28;1291;-70
2021/03/28 14:39:02;;;;;;;;;;;20.60;47.40;;;;;;5075518;28;1902;-70
2021/03/28 14:41:40;;;;;;;;;;;20.60;47.50;;;;;;5076461;28;1315;-69
2021/03/28 14:44:24;;;;;;;;;;;20.60;47.70;;;;;;5076659;28;1052;-69
2021/03/28 14:46:57;;;;;;;;;;;20.60;47.70;;;;;;5077304;28;1367;-69
2021/03/28 14:49:22;;;;;;;;;;;20.60;47.80;;;;;;5075674;28;1217;-70
2021/03/28 14:52:14;;;;;;;;;;;20.60;47.80;;;;;;5077667;28;1301;-70
2021/03/28 14:54:41;;;;;;;;;;;20.60;47.80;;;;;;5054092;28;1377;-69
2021/03/28 14:57:22;;;;;;;;;;;20.70;47.90;;;;;;5075626;28;1035;-71
2021/03/28 14:59:54;;;;;;;;;;;20.70;47.90;;;;;;5075472;28;1894;-69
2021/03/28 15:02:38;;;;;;;;;;;20.70;47.90;;;;;;5077995;28;1094;-69
2021/03/28 15:05:08;;;;;;;;;;;20.70;47.90;;;;;;5078692;28;1343;-70
2021/03/28 15:07:48;;;;;;;;;;;20.70;47.90;;;;;;5074830;28;1400;-69
2021/03/28 15:10:35;;;;;;;;;;;20.70;47.90;;;;;;5076049;28;1309;-70
2021/03/28 15:13:03;;;;;;;;;;;20.70;47.90;;;;;;5076780;28;1394;-70
2021/03/28 15:15:31;;;;;;;;;;;20.70;48.00;;;;;;5078675;28;1269;-70
2021/03/28 15:18:00;;;;;;;;;;;20.70;48.00;;;;;;5076723;28;1918;-69